Hall Beach Airport


Codes: CYUX/YUX
Name: Hall Beach Airport
City: Hall Beach
Country: Canada
Elevation: 30 ft.
Wikipedia:

Photos at Hall Beach Airport


   Photos courtesy of SpottingLog. You can add your own sightings and photos by signing up for a free trial today.



No photos found.

Weather at Hall Beach Airport


Time (UTC)DescriptionTempratureWindCloud coverageVisibilityPressureHumidity
26-Jun-2024 00:00Overcast Clouds4°C4 mph, SE99%10000m1005hPa78%
26-Jun-2024 03:00Overcast Clouds3°C7 mph, SE95%10000m1006hPa83%
26-Jun-2024 06:00Broken Clouds0°C7 mph, SE81%1235m1007hPa96%
26-Jun-2024 09:00Broken Clouds0°C4 mph, SE81%1293m1008hPa97%
26-Jun-2024 12:00Overcast Clouds1°C4 mph, E90%3965m1009hPa92%
26-Jun-2024 15:00Overcast Clouds2°C4 mph, NE95%10000m1010hPa86%
26-Jun-2024 18:00Overcast Clouds4°C9 mph, NE97%10000m1011hPa78%
26-Jun-2024 21:00Broken Clouds4°C7 mph, E51%10000m1012hPa73%
27-Jun-2024 00:00Broken Clouds5°C4 mph, NE55%10000m1012hPa69%
27-Jun-2024 03:00Overcast Clouds5°C4 mph, N100%10000m1011hPa65%
27-Jun-2024 06:00Overcast Clouds4°C7 mph, NW100%10000m1011hPa65%
27-Jun-2024 09:00Overcast Clouds5°C9 mph, NW99%10000m1010hPa66%
27-Jun-2024 12:00Overcast Clouds6°C11 mph, NW100%10000m1009hPa63%
27-Jun-2024 15:00Overcast Clouds6°C13 mph, N100%10000m1007hPa65%
27-Jun-2024 18:00Overcast Clouds8°C11 mph, N85%10000m1006hPa57%
27-Jun-2024 21:00Scattered Clouds8°C7 mph, N26%10000m1004hPa55%
28-Jun-2024 00:00Few Clouds7°C4 mph, NE23%10000m1003hPa60%
28-Jun-2024 03:00Scattered Clouds8°C11 mph, NW46%10000m1002hPa58%
28-Jun-2024 06:00Scattered Clouds6°C16 mph, W40%10000m1001hPa66%
28-Jun-2024 09:00Scattered Clouds5°C11 mph, NW40%10000m1001hPa69%
28-Jun-2024 12:00Scattered Clouds8°C11 mph, NW44%10000m1001hPa63%
28-Jun-2024 15:00Overcast Clouds8°C9 mph, NW100%10000m1001hPa59%
28-Jun-2024 18:00Overcast Clouds7°C9 mph, NE100%10000m1000hPa66%
28-Jun-2024 21:00Overcast Clouds5°C2 mph, E100%1900m1000hPa70%
29-Jun-2024 00:00Overcast Clouds7°C2 mph, SE100%10000m1000hPa63%
29-Jun-2024 03:00Broken Clouds8°C7 mph, SW80%10000m998hPa59%
29-Jun-2024 06:00Overcast Clouds6°C11 mph, NW85%10000m998hPa64%
29-Jun-2024 09:00Overcast Clouds5°C9 mph, NW100%10000m998hPa66%
29-Jun-2024 12:00Overcast Clouds7°C7 mph, NW100%10000m997hPa66%
29-Jun-2024 15:00Broken Clouds8°C7 mph, S74%10000m995hPa65%
29-Jun-2024 18:00Overcast Clouds7°C16 mph, S87%10000m994hPa74%
29-Jun-2024 21:00Light Rain5°C18 mph, SE93%7968m992hPa83%
30-Jun-2024 00:00Broken Clouds6°C11 mph, W83%10000m991hPa73%
30-Jun-2024 03:00Scattered Clouds4°C4 mph, NW43%10000m991hPa81%
30-Jun-2024 06:00Scattered Clouds2°C13 mph, NE47%1933m992hPa98%
30-Jun-2024 09:00Light Rain2°C13 mph, N99%6037m994hPa95%
30-Jun-2024 12:00Light Rain3°C11 mph, N100%10000m994hPa84%
30-Jun-2024 15:00Overcast Clouds4°C11 mph, N100%10000m995hPa79%
30-Jun-2024 18:00Overcast Clouds4°C9 mph, NE100%3455m996hPa89%
30-Jun-2024 21:00Overcast Clouds4°C9 mph, NE100%10000m997hPa86%